createdAt,value
2023-11-30T00:00:20.117Z,-0.11
2023-11-30T00:02:47.517Z,-0.08
2023-11-30T00:05:14.767Z,-0.09
2023-11-30T00:07:41.992Z,-0.08
2023-11-30T00:10:09.628Z,-0.11
2023-11-30T00:12:36.761Z,-0.10
2023-11-30T00:15:04.269Z,-0.12
2023-11-30T00:17:33.919Z,-0.12
2023-11-30T00:20:01.149Z,-0.14
2023-11-30T00:22:29.158Z,-0.10
2023-11-30T00:24:56.355Z,-0.09
2023-11-30T00:27:23.424Z,-0.07
2023-11-30T00:29:50.671Z,-0.07
2023-11-30T00:32:17.772Z,-0.08
2023-11-30T00:34:45.397Z,-0.10
2023-11-30T00:37:13.006Z,-0.09
2023-11-30T00:39:40.093Z,-0.11
2023-11-30T00:42:07.610Z,-0.14
2023-11-30T00:44:34.947Z,-0.14
2023-11-30T00:47:02.117Z,-0.12
2023-11-30T00:49:29.330Z,-0.13
2023-11-30T00:51:56.436Z,-0.09
2023-11-30T00:54:23.699Z,-0.09
2023-11-30T00:56:51.051Z,-0.10
2023-11-30T00:59:18.237Z,-0.11
2023-11-30T01:01:45.471Z,-0.10
2023-11-30T01:04:12.782Z,-0.07
2023-11-30T01:06:39.823Z,-0.06
2023-11-30T01:09:08.430Z,-0.06
2023-11-30T01:11:43.127Z,-0.06
2023-11-30T01:14:10.501Z,-0.04
2023-11-30T01:16:37.657Z,-0.03
2023-11-30T01:19:04.934Z,-0.04
2023-11-30T01:21:33.171Z,-0.06
2023-11-30T01:24:00.537Z,-0.07
2023-11-30T01:26:27.921Z,-0.06
2023-11-30T01:28:55.255Z,-0.07
2023-11-30T01:31:22.593Z,-0.09
2023-11-30T01:33:50.960Z,-0.04
2023-11-30T01:36:18.221Z,-0.05
2023-11-30T01:38:45.781Z,-0.05
2023-11-30T01:41:12.927Z,-0.07
2023-11-30T01:43:40.134Z,-0.09
2023-11-30T01:46:07.738Z,-0.09
2023-11-30T01:48:35.654Z,-0.10
2023-11-30T01:51:06.828Z,-0.10
2023-11-30T01:53:37.707Z,-0.12
2023-11-30T01:56:07.277Z,-0.11
2023-11-30T01:58:35.139Z,-0.13
2023-11-30T02:01:02.410Z,-0.12
2023-11-30T02:03:29.920Z,-0.10
2023-11-30T02:05:57.208Z,-0.09
2023-11-30T02:08:24.319Z,-0.08
2023-11-30T02:10:51.556Z,-0.06
2023-11-30T02:13:18.740Z,-0.06
2023-11-30T02:15:46.301Z,-0.05
2023-11-30T02:18:13.773Z,-0.03
2023-11-30T02:21:03.544Z,-0.08
2023-11-30T02:23:30.702Z,-0.05
2023-11-30T02:25:57.789Z,-0.09
2023-11-30T02:28:26.223Z,-0.09
2023-11-30T02:30:53.442Z,-0.10
2023-11-30T02:33:20.744Z,-0.14
2023-11-30T02:35:48.032Z,-0.14
2023-11-30T02:38:15.132Z,-0.17
2023-11-30T02:40:42.275Z,-0.10
2023-11-30T02:43:09.429Z,-0.08
2023-11-30T02:45:36.532Z,-0.09
2023-11-30T02:48:05.912Z,-0.11
2023-11-30T02:50:33.015Z,-0.05
2023-11-30T02:53:00.219Z,-0.04
2023-11-30T02:55:27.290Z,-0.02
2023-11-30T02:57:54.857Z,0.02
2023-11-30T03:00:22.012Z,0.03
2023-11-30T03:02:49.206Z,0.03
2023-11-30T03:05:16.348Z,0.02
2023-11-30T03:07:43.468Z,0.03
2023-11-30T03:10:10.612Z,0.03
2023-11-30T03:12:37.804Z,0.04
2023-11-30T03:15:05.341Z,0.05
2023-11-30T03:17:32.688Z,0.06
2023-11-30T03:19:59.948Z,0.05
2023-11-30T03:22:27.144Z,0.08
2023-11-30T03:24:54.190Z,0.10
2023-11-30T03:27:22.286Z,0.11
2023-11-30T03:29:49.563Z,0.13
2023-11-30T03:32:16.685Z,0.16
2023-11-30T03:34:43.786Z,0.20
2023-11-30T03:37:11.027Z,0.24
2023-11-30T03:39:38.137Z,0.26
2023-11-30T03:42:05.709Z,0.27
2023-11-30T03:44:32.858Z,0.29
2023-11-30T03:47:00.863Z,0.29
2023-11-30T03:49:28.039Z,0.31
2023-11-30T03:51:55.138Z,0.30
2023-11-30T03:54:22.243Z,0.28
2023-11-30T03:56:49.518Z,0.29
2023-11-30T03:59:16.650Z,0.31
2023-11-30T04:01:43.755Z,0.32
2023-11-30T04:04:11.026Z,0.33
2023-11-30T04:06:38.295Z,0.36
2023-11-30T04:09:05.525Z,0.39
2023-11-30T04:11:32.796Z,0.40
2023-11-30T04:14:07.356Z,0.43
2023-11-30T04:16:36.596Z,0.46
2023-11-30T04:19:04.013Z,0.48
2023-11-30T04:21:32.431Z,0.51
2023-11-30T04:24:00.009Z,0.50
2023-11-30T04:26:27.904Z,0.51
2023-11-30T04:28:55.976Z,0.49
2023-11-30T04:31:23.653Z,0.50
2023-11-30T04:33:50.915Z,0.50
2023-11-30T04:36:18.463Z,0.49
2023-11-30T04:38:45.602Z,0.50
2023-11-30T04:41:13.383Z,0.49
2023-11-30T04:43:41.481Z,0.51
2023-11-30T04:46:09.379Z,0.50
2023-11-30T04:48:38.275Z,0.52
2023-11-30T04:51:06.978Z,0.54
2023-11-30T04:53:34.391Z,0.56
2023-11-30T04:56:01.725Z,0.56
2023-11-30T04:58:29.069Z,0.58
2023-11-30T05:00:56.700Z,0.60
2023-11-30T05:03:24.350Z,0.58
2023-11-30T05:05:51.668Z,0.63
2023-11-30T05:08:18.709Z,0.64
2023-11-30T05:10:45.857Z,0.64
2023-11-30T05:13:13.097Z,0.65
2023-11-30T05:15:41.126Z,0.68
2023-11-30T05:18:08.640Z,0.70
2023-11-30T05:20:36.032Z,0.69
2023-11-30T05:23:03.145Z,0.72
2023-11-30T05:25:30.758Z,0.74
2023-11-30T05:28:02.342Z,0.76
2023-11-30T05:30:29.549Z,0.80
2023-11-30T05:32:56.958Z,0.84
2023-11-30T05:35:24.190Z,0.85
2023-11-30T05:37:51.604Z,0.87
2023-11-30T05:40:20.885Z,0.90
2023-11-30T05:42:49.077Z,0.91
2023-11-30T05:45:16.602Z,0.89
2023-11-30T05:47:44.097Z,0.90
2023-11-30T05:50:11.465Z,0.93
2023-11-30T05:52:39.841Z,0.95
2023-11-30T05:55:08.925Z,0.98
2023-11-30T05:57:37.127Z,1.00
2023-11-30T06:00:05.151Z,1.02
2023-11-30T06:02:40.871Z,1.02
2023-11-30T06:05:09.205Z,1.01
2023-11-30T06:07:38.329Z,1.02
2023-11-30T06:10:07.062Z,1.01
2023-11-30T06:12:34.197Z,0.99
2023-11-30T06:15:01.534Z,1.04
2023-11-30T06:17:31.773Z,1.05
2023-11-30T06:19:59.451Z,1.08
2023-11-30T06:22:26.636Z,1.12
2023-11-30T06:24:54.318Z,1.14
2023-11-30T06:27:21.839Z,1.18
2023-11-30T06:29:49.194Z,1.19
2023-11-30T06:32:16.516Z,1.21
2023-11-30T06:34:43.896Z,1.21
2023-11-30T06:37:11.112Z,1.22
2023-11-30T06:39:44.683Z,1.19
2023-11-30T06:42:14.304Z,1.22
2023-11-30T06:44:46.313Z,1.20
2023-11-30T06:47:13.665Z,1.21
2023-11-30T06:49:43.883Z,1.24
2023-11-30T06:52:11.019Z,1.19
2023-11-30T06:54:38.214Z,1.28
2023-11-30T06:57:08.569Z,1.31
2023-11-30T06:59:35.739Z,1.33
2023-11-30T07:02:02.898Z,1.34
2023-11-30T07:04:32.368Z,1.35
2023-11-30T07:06:59.604Z,1.31
2023-11-30T07:09:27.291Z,1.26
2023-11-30T07:11:54.448Z,1.21
2023-11-30T07:14:21.537Z,1.20
2023-11-30T07:16:48.750Z,1.17
2023-11-30T07:19:15.977Z,1.15
2023-11-30T07:21:43.211Z,1.18
2023-11-30T07:24:12.358Z,1.17
2023-11-30T07:26:40.593Z,1.12
2023-11-30T07:29:07.866Z,1.08
2023-11-30T07:31:35.926Z,1.00
2023-11-30T07:34:04.353Z,0.94
2023-11-30T07:36:33.600Z,0.97
2023-11-30T07:39:00.893Z,0.91
2023-11-30T07:41:28.031Z,0.86
2023-11-30T07:48:04.949Z,0.68
2023-11-30T07:50:32.533Z,0.64
2023-11-30T07:53:00.069Z,0.61
2023-11-30T07:55:27.154Z,0.57
2023-11-30T07:57:54.342Z,0.47
2023-11-30T08:00:23.338Z,0.40
2023-11-30T08:02:50.500Z,0.37
2023-11-30T08:05:18.201Z,0.39
2023-11-30T08:07:45.282Z,0.42
2023-11-30T08:10:12.341Z,0.41
2023-11-30T08:12:39.379Z,0.40
2023-11-30T08:15:08.209Z,0.38
2023-11-30T08:17:35.421Z,0.31
2023-11-30T08:20:02.905Z,0.33
2023-11-30T08:22:32.349Z,0.31
2023-11-30T08:25:01.383Z,0.30
2023-11-30T08:27:31.429Z,0.32
2023-11-30T08:29:58.595Z,0.36
2023-11-30T08:32:25.925Z,0.40
2023-11-30T08:34:53.545Z,0.40
2023-11-30T08:37:20.670Z,0.39
2023-11-30T08:39:47.898Z,0.40
2023-11-30T08:42:15.102Z,0.44
2023-11-30T08:44:42.596Z,0.42
2023-11-30T08:47:09.751Z,0.41
2023-11-30T08:49:36.896Z,0.37
2023-11-30T08:52:04.175Z,0.33
2023-11-30T08:54:31.288Z,0.23
2023-11-30T08:56:59.645Z,0.26
2023-11-30T08:59:26.846Z,0.27
2023-11-30T09:01:54.024Z,0.29
2023-11-30T09:04:21.422Z,0.30
2023-11-30T09:06:48.545Z,0.26
2023-11-30T09:09:15.754Z,0.32
2023-11-30T09:11:45.962Z,0.35
2023-11-30T09:14:13.268Z,0.34
2023-11-30T09:16:40.346Z,0.34
2023-11-30T09:19:07.517Z,0.30
2023-11-30T09:21:34.661Z,0.23
2023-11-30T09:24:05.043Z,0.25
2023-11-30T09:26:33.237Z,0.21
2023-11-30T09:29:04.281Z,0.13
2023-11-30T09:31:32.277Z,0.07
2023-11-30T09:33:59.350Z,-0.03
2023-11-30T09:36:26.555Z,-0.06
2023-11-30T09:38:53.649Z,-0.08
2023-11-30T09:41:24.103Z,-0.06
2023-11-30T09:43:51.759Z,-0.02
2023-11-30T09:46:19.101Z,-0.02
2023-11-30T09:48:47.152Z,-0.06
2023-11-30T09:51:20.991Z,-0.06
2023-11-30T09:53:48.127Z,-0.11
2023-11-30T09:56:15.466Z,-0.13
2023-11-30T09:58:43.600Z,-0.14
2023-11-30T10:01:10.765Z,-0.18
2023-11-30T10:03:39.296Z,-0.21
2023-11-30T10:06:07.700Z,-0.18
2023-11-30T10:08:34.849Z,-0.04
2023-11-30T10:11:02.935Z,0.10
2023-11-30T10:13:29.946Z,0.21
2023-11-30T10:15:57.093Z,0.29
2023-11-30T10:18:24.282Z,0.34
2023-11-30T10:20:51.990Z,0.38
2023-11-30T10:23:19.010Z,0.46
2023-11-30T10:25:47.740Z,0.48
2023-11-30T10:28:15.949Z,0.47
2023-11-30T10:30:44.690Z,0.45
2023-11-30T10:33:22.033Z,0.41
2023-11-30T10:35:51.401Z,0.36
2023-11-30T10:38:29.180Z,0.36
2023-11-30T10:41:16.542Z,0.36
2023-11-30T10:43:50.374Z,0.35
2023-11-30T10:46:19.290Z,0.33
2023-11-30T10:48:47.152Z,0.27
2023-11-30T10:51:14.721Z,0.24
2023-11-30T10:54:00.495Z,0.21
2023-11-30T10:56:29.861Z,0.17
2023-11-30T10:59:00.197Z,0.07
2023-11-30T11:01:28.427Z,-0.01
2023-11-30T11:03:58.786Z,-0.13
2023-11-30T11:06:26.895Z,-0.24
2023-11-30T11:09:08.807Z,-0.36
2023-11-30T11:11:40.779Z,-0.44
2023-11-30T11:14:08.160Z,-0.55
2023-11-30T11:16:42.776Z,-0.68
2023-11-30T11:19:13.442Z,-0.80
2023-11-30T11:21:42.508Z,-0.82
2023-11-30T11:24:09.906Z,-0.82
2023-11-30T11:26:48.541Z,-0.86
2023-11-30T11:29:21.514Z,-0.93
2023-11-30T11:31:58.030Z,-0.97
2023-11-30T11:34:25.243Z,-1.02
2023-11-30T11:36:52.543Z,-1.07
2023-11-30T11:39:23.174Z,-1.08
2023-11-30T11:41:50.562Z,-1.14
2023-11-30T11:44:17.666Z,-1.21
2023-11-30T11:46:44.765Z,-1.25
2023-11-30T11:49:12.322Z,-1.26
2023-11-30T11:51:44.904Z,-1.30
2023-11-30T11:54:22.514Z,-1.36
2023-11-30T11:56:51.500Z,-1.43
2023-11-30T11:59:23.863Z,-1.48
2023-11-30T12:01:52.302Z,-1.50
2023-11-30T12:04:33.705Z,-1.54
2023-11-30T12:07:13.561Z,-1.53
2023-11-30T12:09:40.711Z,-1.60
2023-11-30T12:12:08.962Z,-1.61
2023-11-30T12:14:36.437Z,-1.65
2023-11-30T12:17:03.588Z,-1.71
2023-11-30T12:19:34.064Z,-1.75
2023-11-30T12:22:01.130Z,-1.79
2023-11-30T12:24:28.293Z,-1.81
2023-11-30T12:26:55.434Z,-1.88
2023-11-30T12:29:22.595Z,-1.92
2023-11-30T12:31:50.080Z,-1.96
2023-11-30T12:34:17.350Z,-2.00
2023-11-30T12:36:44.709Z,-2.03
2023-11-30T12:39:15.287Z,-2.06
2023-11-30T12:41:43.913Z,-2.08
2023-11-30T12:44:11.001Z,-2.06
2023-11-30T12:46:39.351Z,-2.05
2023-11-30T12:49:06.380Z,-2.06
2023-11-30T12:51:33.460Z,-2.03
2023-11-30T12:54:01.108Z,-2.01
2023-11-30T12:56:28.934Z,-2.02
2023-11-30T12:58:56.167Z,-2.08
2023-11-30T13:01:23.439Z,-2.11
2023-11-30T13:03:50.768Z,-2.13
2023-11-30T13:06:18.401Z,-2.15
2023-11-30T13:08:45.511Z,-2.19
2023-11-30T13:11:12.522Z,-2.22
2023-11-30T13:13:42.551Z,-2.24
2023-11-30T13:16:13.254Z,-2.29
2023-11-30T13:18:40.542Z,-2.30
2023-11-30T13:21:07.879Z,-2.31
2023-11-30T13:23:34.860Z,-2.34
2023-11-30T13:26:01.882Z,-2.40
2023-11-30T13:28:37.837Z,-2.44
2023-11-30T13:31:10.132Z,-2.44
2023-11-30T13:33:40.504Z,-2.45
2023-11-30T13:36:08.521Z,-2.47
2023-11-30T13:38:36.501Z,-2.47
2023-11-30T13:41:04.376Z,-2.46
2023-11-30T13:43:31.451Z,-2.44
2023-11-30T13:45:58.634Z,-2.43
2023-11-30T13:48:25.664Z,-2.46
2023-11-30T13:50:56.520Z,-2.47
2023-11-30T13:53:29.586Z,-2.48
2023-11-30T13:55:57.878Z,-2.50
2023-11-30T13:58:25.776Z,-2.48
2023-11-30T14:00:53.378Z,-2.47
2023-11-30T14:03:21.783Z,-2.50
2023-11-30T14:05:48.956Z,-2.52
2023-11-30T14:08:17.148Z,-2.54
2023-11-30T14:10:44.261Z,-2.55
2023-11-30T14:13:11.696Z,-2.58
2023-11-30T14:15:38.802Z,-2.60
2023-11-30T14:18:06.042Z,-2.60
2023-11-30T14:20:35.745Z,-2.63
2023-11-30T14:23:04.682Z,-2.67
2023-11-30T14:25:31.812Z,-2.74
2023-11-30T14:28:04.910Z,-2.75
2023-11-30T14:30:36.659Z,-2.76
2023-11-30T14:33:04.086Z,-2.74
2023-11-30T14:35:31.267Z,-2.68
2023-11-30T14:37:58.380Z,-2.67
2023-11-30T14:40:25.605Z,-2.64
2023-11-30T14:42:52.857Z,-2.62
2023-11-30T14:45:19.896Z,-2.63
2023-11-30T14:47:47.995Z,-2.62
2023-11-30T14:50:17.055Z,-2.59
2023-11-30T14:52:47.355Z,-2.61
2023-11-30T14:55:14.925Z,-2.61
2023-11-30T14:57:43.494Z,-2.64
2023-11-30T15:00:16.224Z,-2.66
2023-11-30T15:02:43.846Z,-2.65
2023-11-30T15:05:14.906Z,-2.63
2023-11-30T15:07:42.885Z,-2.62
2023-11-30T15:10:12.660Z,-2.63
2023-11-30T15:12:40.282Z,-2.63
2023-11-30T15:15:15.541Z,-2.63
2023-11-30T15:17:48.157Z,-2.63
2023-11-30T15:20:16.694Z,-2.64
2023-11-30T15:22:45.247Z,-2.64
2023-11-30T15:25:18.809Z,-2.62
2023-11-30T15:27:48.001Z,-2.64
2023-11-30T15:30:16.706Z,-2.65
2023-11-30T15:32:44.125Z,-2.65
2023-11-30T15:35:11.294Z,-2.69
2023-11-30T15:37:38.509Z,-2.72
2023-11-30T15:40:12.141Z,-2.76
2023-11-30T15:42:39.916Z,-2.77
2023-11-30T15:45:11.723Z,-2.77
2023-11-30T15:47:40.894Z,-2.76
2023-11-30T15:50:08.685Z,-2.76
2023-11-30T15:52:35.719Z,-2.77
2023-11-30T15:55:02.899Z,-2.75
2023-11-30T15:57:30.967Z,-2.74
2023-11-30T15:59:58.246Z,-2.75
2023-11-30T16:02:25.288Z,-2.77
2023-11-30T16:04:52.794Z,-2.82
2023-11-30T16:07:19.850Z,-2.85
2023-11-30T16:09:46.993Z,-2.88
2023-11-30T16:12:14.326Z,-2.88
2023-11-30T16:14:41.619Z,-2.87
2023-11-30T16:17:11.761Z,-2.88
2023-11-30T16:19:39.143Z,-2.91
2023-11-30T16:22:06.324Z,-2.98
2023-11-30T16:24:33.602Z,-2.94
2023-11-30T16:27:00.917Z,-2.95
2023-11-30T16:29:27.938Z,-2.96
2023-11-30T16:31:55.214Z,-2.94
2023-11-30T16:34:23.501Z,-2.95
2023-11-30T16:36:50.665Z,-2.98
2023-11-30T16:39:18.294Z,-3.00
2023-11-30T16:41:45.557Z,-3.00
2023-11-30T16:44:13.085Z,-3.03
2023-11-30T16:46:40.734Z,-3.06
2023-11-30T16:49:08.297Z,-3.06
2023-11-30T16:51:36.861Z,-3.06
2023-11-30T16:54:05.207Z,-3.09
2023-11-30T16:56:39.923Z,-3.08
2023-11-30T16:59:07.140Z,-3.09
2023-11-30T17:01:37.622Z,-3.12
2023-11-30T17:04:05.608Z,-3.13
2023-11-30T17:06:33.118Z,-3.14
2023-11-30T17:09:00.391Z,-3.15
2023-11-30T17:11:29.805Z,-3.16
2023-11-30T17:13:57.465Z,-3.19
2023-11-30T17:16:24.675Z,-3.20
2023-11-30T17:18:52.357Z,-3.21
2023-11-30T17:21:19.580Z,-3.22
2023-11-30T17:23:58.424Z,-3.21
2023-11-30T17:26:26.609Z,-3.23
2023-11-30T17:28:53.753Z,-3.27
2023-11-30T17:31:20.836Z,-3.26
2023-11-30T17:33:48.287Z,-3.25
2023-11-30T17:36:15.636Z,-3.25
2023-11-30T17:38:42.928Z,-3.26
2023-11-30T17:41:11.193Z,-3.22
2023-11-30T17:43:38.698Z,-3.24
2023-11-30T17:46:10.005Z,-3.25
2023-11-30T17:48:47.161Z,-3.25
2023-11-30T17:51:19.316Z,-3.25
2023-11-30T17:53:47.727Z,-3.26
2023-11-30T17:56:14.930Z,-3.27
2023-11-30T17:58:42.097Z,-3.30
2023-11-30T18:01:09.354Z,-3.34
2023-11-30T18:03:36.597Z,-3.35
2023-11-30T18:06:05.223Z,-3.34
2023-11-30T18:08:32.432Z,-3.32
2023-11-30T18:10:59.495Z,-3.30
2023-11-30T18:13:26.701Z,-3.33
2023-11-30T18:15:56.103Z,-3.33
2023-11-30T18:18:23.604Z,-3.31
2023-11-30T18:20:51.139Z,-3.31
2023-11-30T18:23:18.242Z,-3.33
2023-11-30T18:25:45.537Z,-3.35
2023-11-30T18:28:13.012Z,-3.35
2023-11-30T18:30:40.256Z,-3.35
2023-11-30T18:33:09.311Z,-3.34
2023-11-30T18:35:36.632Z,-3.37
2023-11-30T18:38:05.159Z,-3.36
2023-11-30T18:40:32.371Z,-3.37
2023-11-30T18:42:59.601Z,-3.44
2023-11-30T18:45:28.218Z,-3.40
2023-11-30T18:47:58.135Z,-3.39
2023-11-30T18:50:25.378Z,-3.42
2023-11-30T18:52:53.425Z,-3.43
2023-11-30T18:55:20.557Z,-3.44
2023-11-30T18:57:53.910Z,-3.44
2023-11-30T19:00:21.408Z,-3.46
2023-11-30T19:02:51.504Z,-3.51
2023-11-30T19:05:21.630Z,-3.54
2023-11-30T19:07:48.850Z,-3.55
2023-11-30T19:10:16.669Z,-3.57
2023-11-30T19:12:44.656Z,-3.60
2023-11-30T19:15:12.073Z,-3.59
2023-11-30T19:17:49.467Z,-3.59
2023-11-30T19:20:17.212Z,-3.60
2023-11-30T19:22:44.394Z,-3.61
2023-11-30T19:25:11.529Z,-3.62
2023-11-30T19:27:38.798Z,-3.61
2023-11-30T19:30:06.454Z,-3.62
2023-11-30T19:32:33.602Z,-3.61
2023-11-30T19:35:00.744Z,-3.60
2023-11-30T19:37:27.802Z,-3.63
2023-11-30T19:39:54.958Z,-3.57
2023-11-30T19:42:24.347Z,-3.59
2023-11-30T19:44:51.426Z,-3.59
2023-11-30T19:47:19.035Z,-3.59
2023-11-30T19:49:46.379Z,-3.60
2023-11-30T19:52:13.524Z,-3.60
2023-11-30T19:54:40.705Z,-3.65
2023-11-30T19:57:07.882Z,-3.67
2023-11-30T19:59:35.229Z,-3.65
2023-11-30T20:02:02.528Z,-3.63
2023-11-30T20:04:29.835Z,-3.64
2023-11-30T20:06:58.274Z,-3.64
2023-11-30T20:09:25.424Z,-3.63
2023-11-30T20:11:52.563Z,-3.64
2023-11-30T20:14:19.709Z,-3.60
2023-11-30T20:16:47.004Z,-3.61
2023-11-30T20:19:14.470Z,-3.57
2023-11-30T20:21:41.580Z,-3.53
2023-11-30T20:24:08.889Z,-3.53
2023-11-30T20:26:40.212Z,-3.49
2023-11-30T20:29:08.004Z,-3.45
2023-11-30T20:31:35.353Z,-3.45
2023-11-30T20:34:04.094Z,-3.42
2023-11-30T20:36:31.450Z,-3.38
2023-11-30T20:38:58.617Z,-3.36
2023-11-30T20:41:25.809Z,-3.31
2023-11-30T20:43:54.436Z,-3.29
2023-11-30T20:46:21.829Z,-3.30
2023-11-30T20:48:49.323Z,-3.33
2023-11-30T20:51:20.302Z,-3.34
2023-11-30T20:53:47.472Z,-3.36
2023-11-30T20:56:14.801Z,-3.36
2023-11-30T20:58:44.641Z,-3.35
2023-11-30T21:01:12.271Z,-3.37
2023-11-30T21:03:40.039Z,-3.40
2023-11-30T21:06:07.716Z,-3.40
2023-11-30T21:08:34.830Z,-3.40
2023-11-30T21:11:02.612Z,-3.38
2023-11-30T21:13:32.011Z,-3.39
2023-11-30T21:15:59.576Z,-3.40
2023-11-30T21:18:26.940Z,-3.39
2023-11-30T21:20:54.303Z,-3.36
2023-11-30T21:23:21.889Z,-3.35
2023-11-30T21:25:49.043Z,-3.34
2023-11-30T21:28:16.364Z,-3.32
2023-11-30T21:30:43.519Z,-3.33
2023-11-30T21:33:10.795Z,-3.32
2023-11-30T21:35:38.098Z,-3.34
2023-11-30T21:38:05.133Z,-3.34
2023-11-30T21:40:34.387Z,-3.39
2023-11-30T21:43:01.559Z,-3.41
2023-11-30T21:45:28.985Z,-3.41
2023-11-30T21:47:56.147Z,-3.45
2023-11-30T21:50:24.842Z,-3.42
2023-11-30T21:52:52.746Z,-3.39
2023-11-30T21:55:20.002Z,-3.38
2023-11-30T21:57:47.310Z,-3.40
2023-11-30T22:00:17.270Z,-3.44
2023-11-30T22:02:46.114Z,-3.47
2023-11-30T22:05:23.577Z,-3.49
2023-11-30T22:07:54.443Z,-3.52
2023-11-30T22:10:21.634Z,-3.54
2023-11-30T22:12:48.844Z,-3.54
2023-11-30T22:15:15.934Z,-3.53
2023-11-30T22:17:43.078Z,-3.51
2023-11-30T22:20:10.791Z,-3.48
2023-11-30T22:22:37.929Z,-3.45
2023-11-30T22:25:05.550Z,-3.44
2023-11-30T22:27:32.703Z,-3.44
2023-11-30T22:29:59.999Z,-3.43
2023-11-30T22:32:27.181Z,-3.41
2023-11-30T22:34:54.246Z,-3.40
2023-11-30T22:37:21.424Z,-3.41
2023-11-30T22:39:48.680Z,-3.41
2023-11-30T22:42:16.052Z,-3.42
2023-11-30T22:44:43.288Z,-3.50
2023-11-30T22:47:10.349Z,-3.53
2023-11-30T22:49:37.906Z,-3.54
2023-11-30T22:52:05.217Z,-3.55
2023-11-30T22:54:33.204Z,-3.57
2023-11-30T22:57:00.414Z,-3.60
2023-11-30T22:59:28.879Z,-3.59
2023-11-30T23:01:56.256Z,-3.53
2023-11-30T23:04:24.766Z,-3.49
2023-11-30T23:06:52.123Z,-3.45
2023-11-30T23:09:19.319Z,-3.46
2023-11-30T23:11:46.547Z,-3.44
2023-11-30T23:14:14.314Z,-3.42
2023-11-30T23:16:41.851Z,-3.40
2023-11-30T23:19:09.206Z,-3.42
2023-11-30T23:21:36.303Z,-3.39
2023-11-30T23:24:03.516Z,-3.41
2023-11-30T23:26:30.581Z,-3.41
2023-11-30T23:28:58.070Z,-3.41
2023-11-30T23:31:25.301Z,-3.42
2023-11-30T23:33:52.446Z,-3.46
2023-11-30T23:36:19.685Z,-3.48
2023-11-30T23:38:47.089Z,-3.56
2023-11-30T23:41:14.203Z,-3.56
2023-11-30T23:43:41.280Z,-3.58
2023-11-30T23:46:09.622Z,-3.59
2023-11-30T23:48:36.824Z,-3.55
2023-11-30T23:51:04.223Z,-3.55
2023-11-30T23:53:31.296Z,-3.59
2023-11-30T23:55:58.366Z,-3.58
2023-11-30T23:58:25.482Z,-3.58
